sensor_id;sensor_type;location;lat;lon;timestamp;temperature;humidity
19248;DHT22;9758;48.640;8.148;2023-09-12T00:00:10;25.60;45.40
19248;DHT22;9758;48.640;8.148;2023-09-12T00:02:37;25.60;45.40
19248;DHT22;9758;48.640;8.148;2023-09-12T00:05:05;25.60;45.40
19248;DHT22;9758;48.640;8.148;2023-09-12T00:07:32;25.50;45.30
19248;DHT22;9758;48.640;8.148;2023-09-12T00:09:58;25.50;45.40
19248;DHT22;9758;48.640;8.148;2023-09-12T00:12:27;25.50;45.40
19248;DHT22;9758;48.640;8.148;2023-09-12T00:14:54;25.50;45.40
19248;DHT22;9758;48.640;8.148;2023-09-12T00:17:21;25.50;45.50
19248;DHT22;9758;48.640;8.148;2023-09-12T00:19:48;25.50;45.50
19248;DHT22;9758;48.640;8.148;2023-09-12T00:22:15;25.40;45.40
19248;DHT22;9758;48.640;8.148;2023-09-12T00:24:41;25.40;45.40
19248;DHT22;9758;48.640;8.148;2023-09-12T00:27:08;25.40;45.50
19248;DHT22;9758;48.640;8.148;2023-09-12T00:29:36;25.30;45.30
19248;DHT22;9758;48.640;8.148;2023-09-12T00:32:04;25.30;45.40
19248;DHT22;9758;48.640;8.148;2023-09-12T00:34:31;25.30;45.50
19248;DHT22;9758;48.640;8.148;2023-09-12T00:36:58;25.20;45.50
19248;DHT22;9758;48.640;8.148;2023-09-12T00:39:25;25.20;45.50
19248;DHT22;9758;48.640;8.148;2023-09-12T00:41:51;25.20;45.50
19248;DHT22;9758;48.640;8.148;2023-09-12T00:44:18;25.20;45.60
19248;DHT22;9758;48.640;8.148;2023-09-12T00:46:48;25.10;46.20
19248;DHT22;9758;48.640;8.148;2023-09-12T00:49:16;25.10;45.60
19248;DHT22;9758;48.640;8.148;2023-09-12T00:51:44;25.00;45.60
19248;DHT22;9758;48.640;8.148;2023-09-12T00:54:11;25.00;45.60
19248;DHT22;9758;48.640;8.148;2023-09-12T00:56:38;25.00;45.70
19248;DHT22;9758;48.640;8.148;2023-09-12T00:59:05;25.00;45.70
19248;DHT22;9758;48.640;8.148;2023-09-12T01:01:33;25.00;45.70
19248;DHT22;9758;48.640;8.148;2023-09-12T01:04:02;24.90;45.70
19248;DHT22;9758;48.640;8.148;2023-09-12T01:06:31;24.90;45.70
19248;DHT22;9758;48.640;8.148;2023-09-12T01:08:58;24.80;45.70
19248;DHT22;9758;48.640;8.148;2023-09-12T01:11:25;24.80;45.70
19248;DHT22;9758;48.640;8.148;2023-09-12T01:13:52;24.80;45.80
19248;DHT22;9758;48.640;8.148;2023-09-12T01:16:19;24.80;45.80
19248;DHT22;9758;48.640;8.148;2023-09-12T01:18:46;24.80;45.80
19248;DHT22;9758;48.640;8.148;2023-09-12T01:21:36;24.80;45.90
19248;DHT22;9758;48.640;8.148;2023-09-12T01:24:32;24.80;46.00
19248;DHT22;9758;48.640;8.148;2023-09-12T01:27:19;24.80;46.10
19248;DHT22;9758;48.640;8.148;2023-09-12T01:29:50;24.80;46.10
19248;DHT22;9758;48.640;8.148;2023-09-12T01:32:18;24.70;46.00
19248;DHT22;9758;48.640;8.148;2023-09-12T01:34:46;24.80;46.10
19248;DHT22;9758;48.640;8.148;2023-09-12T01:37:13;24.70;46.00
19248;DHT22;9758;48.640;8.148;2023-09-12T01:39:40;24.70;46.00
19248;DHT22;9758;48.640;8.148;2023-09-12T01:42:09;24.70;46.00
19248;DHT22;9758;48.640;8.148;2023-09-12T01:44:38;24.80;46.00
19248;DHT22;9758;48.640;8.148;2023-09-12T01:47:06;24.70;46.00
19248;DHT22;9758;48.640;8.148;2023-09-12T01:49:35;24.80;46.00
19248;DHT22;9758;48.640;8.148;2023-09-12T01:52:04;24.80;46.00
19248;DHT22;9758;48.640;8.148;2023-09-12T01:54:32;24.80;46.00
19248;DHT22;9758;48.640;8.148;2023-09-12T01:56:59;24.80;46.00
19248;DHT22;9758;48.640;8.148;2023-09-12T01:59:28;24.70;45.90
19248;DHT22;9758;48.640;8.148;2023-09-12T02:01:56;24.70;45.90
19248;DHT22;9758;48.640;8.148;2023-09-12T02:04:23;24.70;46.00
19248;DHT22;9758;48.640;8.148;2023-09-12T02:06:50;24.70;46.00
19248;DHT22;9758;48.640;8.148;2023-09-12T02:09:17;24.60;46.00
19248;DHT22;9758;48.640;8.148;2023-09-12T02:11:43;24.60;46.00
19248;DHT22;9758;48.640;8.148;2023-09-12T02:14:10;24.60;46.10
19248;DHT22;9758;48.640;8.148;2023-09-12T02:16:37;24.60;46.00
19248;DHT22;9758;48.640;8.148;2023-09-12T02:19:06;24.60;46.00
19248;DHT22;9758;48.640;8.148;2023-09-12T02:21:33;24.60;46.00
19248;DHT22;9758;48.640;8.148;2023-09-12T02:24:00;24.60;46.00
19248;DHT22;9758;48.640;8.148;2023-09-12T02:26:27;24.60;46.00
19248;DHT22;9758;48.640;8.148;2023-09-12T02:28:54;24.60;46.00
19248;DHT22;9758;48.640;8.148;2023-09-12T02:31:20;24.60;46.00
19248;DHT22;9758;48.640;8.148;2023-09-12T02:33:47;24.60;46.00
19248;DHT22;9758;48.640;8.148;2023-09-12T02:36:15;24.60;46.00
19248;DHT22;9758;48.640;8.148;2023-09-12T02:38:42;24.60;46.00
19248;DHT22;9758;48.640;8.148;2023-09-12T02:41:09;24.60;46.10
19248;DHT22;9758;48.640;8.148;2023-09-12T02:43:36;24.60;46.00
19248;DHT22;9758;48.640;8.148;2023-09-12T02:46:02;24.60;46.10
19248;DHT22;9758;48.640;8.148;2023-09-12T02:48:29;24.60;46.00
19248;DHT22;9758;48.640;8.148;2023-09-12T02:50:56;24.60;46.00
19248;DHT22;9758;48.640;8.148;2023-09-12T02:53:24;24.60;46.00
19248;DHT22;9758;48.640;8.148;2023-09-12T02:55:51;24.60;46.00
19248;DHT22;9758;48.640;8.148;2023-09-12T02:58:19;24.60;46.00
19248;DHT22;9758;48.640;8.148;2023-09-12T03:00:46;24.60;46.00
19248;DHT22;9758;48.640;8.148;2023-09-12T03:03:15;24.60;46.00
19248;DHT22;9758;48.640;8.148;2023-09-12T03:05:42;24.50;46.00
19248;DHT22;9758;48.640;8.148;2023-09-12T03:08:09;24.50;46.10
19248;DHT22;9758;48.640;8.148;2023-09-12T03:10:37;24.50;46.10
19248;DHT22;9758;48.640;8.148;2023-09-12T03:13:04;24.40;46.10
19248;DHT22;9758;48.640;8.148;2023-09-12T03:15:35;24.40;46.20
19248;DHT22;9758;48.640;8.148;2023-09-12T03:18:07;24.40;46.20
19248;DHT22;9758;48.640;8.148;2023-09-12T03:20:37;24.40;46.30
19248;DHT22;9758;48.640;8.148;2023-09-12T03:23:04;24.40;46.30
19248;DHT22;9758;48.640;8.148;2023-09-12T03:25:36;24.40;46.30
19248;DHT22;9758;48.640;8.148;2023-09-12T03:28:04;24.40;46.40
19248;DHT22;9758;48.640;8.148;2023-09-12T03:30:33;24.30;46.50
19248;DHT22;9758;48.640;8.148;2023-09-12T03:32:59;24.30;46.40
19248;DHT22;9758;48.640;8.148;2023-09-12T03:35:28;24.40;46.50
19248;DHT22;9758;48.640;8.148;2023-09-12T03:37:55;24.40;46.50
19248;DHT22;9758;48.640;8.148;2023-09-12T03:40:22;24.40;46.50
19248;DHT22;9758;48.640;8.148;2023-09-12T03:42:50;24.40;46.50
19248;DHT22;9758;48.640;8.148;2023-09-12T03:45:17;24.30;46.40
19248;DHT22;9758;48.640;8.148;2023-09-12T03:47:44;24.30;46.40
19248;DHT22;9758;48.640;8.148;2023-09-12T03:50:12;24.30;46.50
19248;DHT22;9758;48.640;8.148;2023-09-12T03:52:39;24.30;46.60
19248;DHT22;9758;48.640;8.148;2023-09-12T03:55:07;24.30;46.60
19248;DHT22;9758;48.640;8.148;2023-09-12T03:57:34;24.20;46.60
19248;DHT22;9758;48.640;8.148;2023-09-12T04:00:03;24.20;46.60
19248;DHT22;9758;48.640;8.148;2023-09-12T04:02:31;24.20;46.60
19248;DHT22;9758;48.640;8.148;2023-09-12T04:04:58;24.10;46.60
19248;DHT22;9758;48.640;8.148;2023-09-12T04:07:25;24.10;46.70
19248;DHT22;9758;48.640;8.148;2023-09-12T04:09:52;24.10;46.70
19248;DHT22;9758;48.640;8.148;2023-09-12T04:12:18;24.10;46.80
19248;DHT22;9758;48.640;8.148;2023-09-12T04:14:45;24.10;46.80
19248;DHT22;9758;48.640;8.148;2023-09-12T04:17:13;24.10;46.80
19248;DHT22;9758;48.640;8.148;2023-09-12T04:19:40;24.10;46.80
19248;DHT22;9758;48.640;8.148;2023-09-12T04:22:07;24.00;46.80
19248;DHT22;9758;48.640;8.148;2023-09-12T04:24:34;24.00;46.90
19248;DHT22;9758;48.640;8.148;2023-09-12T04:27:01;23.90;46.90
19248;DHT22;9758;48.640;8.148;2023-09-12T04:29:28;23.90;46.90
19248;DHT22;9758;48.640;8.148;2023-09-12T04:31:55;23.90;46.90
19248;DHT22;9758;48.640;8.148;2023-09-12T04:34:26;23.90;47.00
19248;DHT22;9758;48.640;8.148;2023-09-12T04:36:53;23.80;47.00
19248;DHT22;9758;48.640;8.148;2023-09-12T04:39:20;23.70;47.00
19248;DHT22;9758;48.640;8.148;2023-09-12T04:41:47;23.70;47.10
19248;DHT22;9758;48.640;8.148;2023-09-12T04:44:14;23.70;47.10
19248;DHT22;9758;48.640;8.148;2023-09-12T04:46:40;23.70;47.20
19248;DHT22;9758;48.640;8.148;2023-09-12T04:49:07;23.60;47.20
19248;DHT22;9758;48.640;8.148;2023-09-12T04:51:36;23.50;47.20
19248;DHT22;9758;48.640;8.148;2023-09-12T04:54:03;23.50;47.30
19248;DHT22;9758;48.640;8.148;2023-09-12T04:56:30;23.40;47.30
19248;DHT22;9758;48.640;8.148;2023-09-12T04:58:56;23.40;47.40
19248;DHT22;9758;48.640;8.148;2023-09-12T05:01:23;23.30;48.00
19248;DHT22;9758;48.640;8.148;2023-09-12T05:03:51;23.30;47.40
19248;DHT22;9758;48.640;8.148;2023-09-12T05:06:18;23.20;47.40
19248;DHT22;9758;48.640;8.148;2023-09-12T05:08:46;23.20;47.50
19248;DHT22;9758;48.640;8.148;2023-09-12T05:11:13;23.20;47.60
19248;DHT22;9758;48.640;8.148;2023-09-12T05:13:39;23.10;47.60
19248;DHT22;9758;48.640;8.148;2023-09-12T05:16:06;23.10;47.70
19248;DHT22;9758;48.640;8.148;2023-09-12T05:18:33;23.10;47.70
19248;DHT22;9758;48.640;8.148;2023-09-12T05:21:00;23.10;47.80
19248;DHT22;9758;48.640;8.148;2023-09-12T05:23:27;23.10;47.80
19248;DHT22;9758;48.640;8.148;2023-09-12T05:25:58;23.10;47.90
19248;DHT22;9758;48.640;8.148;2023-09-12T05:28:25;23.10;47.90
19248;DHT22;9758;48.640;8.148;2023-09-12T05:30:52;23.10;47.80
19248;DHT22;9758;48.640;8.148;2023-09-12T05:33:19;23.20;48.50
19248;DHT22;9758;48.640;8.148;2023-09-12T05:35:46;23.20;47.90
19248;DHT22;9758;48.640;8.148;2023-09-12T05:38:12;23.20;47.90
19248;DHT22;9758;48.640;8.148;2023-09-12T05:40:39;23.20;47.90
19248;DHT22;9758;48.640;8.148;2023-09-12T05:43:07;23.20;47.90
19248;DHT22;9758;48.640;8.148;2023-09-12T05:45:34;23.20;47.90
19248;DHT22;9758;48.640;8.148;2023-09-12T05:48:01;23.20;47.90
19248;DHT22;9758;48.640;8.148;2023-09-12T05:50:28;23.30;48.00
19248;DHT22;9758;48.640;8.148;2023-09-12T05:52:55;23.30;48.00
19248;DHT22;9758;48.640;8.148;2023-09-12T05:55:22;23.30;48.00
19248;DHT22;9758;48.640;8.148;2023-09-12T05:57:49;23.40;48.00
19248;DHT22;9758;48.640;8.148;2023-09-12T06:00:19;23.40;48.00
19248;DHT22;9758;48.640;8.148;2023-09-12T06:02:46;23.50;48.00
19248;DHT22;9758;48.640;8.148;2023-09-12T06:05:13;23.50;47.90
19248;DHT22;9758;48.640;8.148;2023-09-12T06:07:40;23.60;48.00
19248;DHT22;9758;48.640;8.148;2023-09-12T06:10:08;23.60;48.00
19248;DHT22;9758;48.640;8.148;2023-09-12T06:12:35;23.70;48.00
19248;DHT22;9758;48.640;8.148;2023-09-12T06:15:03;23.70;47.90
19248;DHT22;9758;48.640;8.148;2023-09-12T06:17:32;23.70;47.90
19248;DHT22;9758;48.640;8.148;2023-09-12T06:20:02;23.80;47.90
19248;DHT22;9758;48.640;8.148;2023-09-12T06:22:31;23.80;47.90
19248;DHT22;9758;48.640;8.148;2023-09-12T06:24:59;23.90;47.90
19248;DHT22;9758;48.640;8.148;2023-09-12T06:27:27;23.90;47.90
19248;DHT22;9758;48.640;8.148;2023-09-12T06:29:54;23.90;48.00
19248;DHT22;9758;48.640;8.148;2023-09-12T06:32:21;24.00;48.00
19248;DHT22;9758;48.640;8.148;2023-09-12T06:34:50;24.10;47.90
19248;DHT22;9758;48.640;8.148;2023-09-12T06:37:17;24.10;47.90
19248;DHT22;9758;48.640;8.148;2023-09-12T06:39:51;24.10;47.90
19248;DHT22;9758;48.640;8.148;2023-09-12T06:42:23;24.20;47.90
19248;DHT22;9758;48.640;8.148;2023-09-12T06:44:49;24.20;47.90
19248;DHT22;9758;48.640;8.148;2023-09-12T06:47:24;24.30;47.90
19248;DHT22;9758;48.640;8.148;2023-09-12T06:49:54;24.40;48.00
19248;DHT22;9758;48.640;8.148;2023-09-12T06:52:20;24.50;48.00
19248;DHT22;9758;48.640;8.148;2023-09-12T06:54:47;24.60;48.00
19248;DHT22;9758;48.640;8.148;2023-09-12T06:57:14;24.60;48.00
19248;DHT22;9758;48.640;8.148;2023-09-12T06:59:41;24.70;47.90
19248;DHT22;9758;48.640;8.148;2023-09-12T07:02:08;24.80;47.90
19248;DHT22;9758;48.640;8.148;2023-09-12T07:04:35;25.00;48.00
19248;DHT22;9758;48.640;8.148;2023-09-12T07:07:04;25.10;47.90
19248;DHT22;9758;48.640;8.148;2023-09-12T07:09:31;25.20;47.90
19248;DHT22;9758;48.640;8.148;2023-09-12T07:12:00;25.30;47.90
19248;DHT22;9758;48.640;8.148;2023-09-12T07:14:27;25.40;48.10
19248;DHT22;9758;48.640;8.148;2023-09-12T07:16:57;25.50;47.80
19248;DHT22;9758;48.640;8.148;2023-09-12T07:19:30;25.60;47.70
19248;DHT22;9758;48.640;8.148;2023-09-12T07:29:04;25.90;47.70
19248;DHT22;9758;48.640;8.148;2023-09-12T07:31:33;25.90;47.70
19248;DHT22;9758;48.640;8.148;2023-09-12T07:34:14;26.00;47.50
19248;DHT22;9758;48.640;8.148;2023-09-12T07:36:41;26.10;47.50
19248;DHT22;9758;48.640;8.148;2023-09-12T07:39:08;26.20;47.50
19248;DHT22;9758;48.640;8.148;2023-09-12T07:41:35;26.30;47.60
19248;DHT22;9758;48.640;8.148;2023-09-12T07:44:05;26.30;47.50
19248;DHT22;9758;48.640;8.148;2023-09-12T07:46:33;26.40;47.60
19248;DHT22;9758;48.640;8.148;2023-09-12T07:49:00;26.40;47.50
19248;DHT22;9758;48.640;8.148;2023-09-12T07:51:27;26.40;47.50
19248;DHT22;9758;48.640;8.148;2023-09-12T07:53:54;26.40;47.60
19248;DHT22;9758;48.640;8.148;2023-09-12T07:56:21;26.50;47.70
19248;DHT22;9758;48.640;8.148;2023-09-12T07:58:48;26.50;47.70
19248;DHT22;9758;48.640;8.148;2023-09-12T08:01:17;26.60;47.70
19248;DHT22;9758;48.640;8.148;2023-09-12T08:03:43;26.70;47.70
19248;DHT22;9758;48.640;8.148;2023-09-12T08:06:10;26.80;47.80
19248;DHT22;9758;48.640;8.148;2023-09-12T08:08:37;26.80;47.80
19248;DHT22;9758;48.640;8.148;2023-09-12T08:11:04;26.90;47.80
19248;DHT22;9758;48.640;8.148;2023-09-12T08:13:31;26.90;47.90
19248;DHT22;9758;48.640;8.148;2023-09-12T08:15:58;26.80;48.10
19248;DHT22;9758;48.640;8.148;2023-09-12T08:18:29;26.80;47.90
19248;DHT22;9758;48.640;8.148;2023-09-12T08:20:56;26.70;48.00
19248;DHT22;9758;48.640;8.148;2023-09-12T08:23:23;26.70;48.00
19248;DHT22;9758;48.640;8.148;2023-09-12T08:25:50;26.70;48.00
19248;DHT22;9758;48.640;8.148;2023-09-12T08:28:17;26.80;48.10
19248;DHT22;9758;48.640;8.148;2023-09-12T08:30:44;26.80;48.10
19248;DHT22;9758;48.640;8.148;2023-09-12T08:33:10;26.90;48.10
19248;DHT22;9758;48.640;8.148;2023-09-12T08:35:39;27.00;48.00
19248;DHT22;9758;48.640;8.148;2023-09-12T08:38:05;27.10;48.00
19248;DHT22;9758;48.640;8.148;2023-09-12T08:40:33;27.20;48.00
19248;DHT22;9758;48.640;8.148;2023-09-12T08:43:01;27.30;48.00
19248;DHT22;9758;48.640;8.148;2023-09-12T08:45:29;27.50;48.00
19248;DHT22;9758;48.640;8.148;2023-09-12T08:47:59;27.50;47.80
19248;DHT22;9758;48.640;8.148;2023-09-12T08:50:26;27.60;47.80
19248;DHT22;9758;48.640;8.148;2023-09-12T08:52:57;27.70;47.70
19248;DHT22;9758;48.640;8.148;2023-09-12T08:55:24;27.90;47.70
19248;DHT22;9758;48.640;8.148;2023-09-12T08:57:53;27.90;47.50
19248;DHT22;9758;48.640;8.148;2023-09-12T09:00:22;28.00;47.50
19248;DHT22;9758;48.640;8.148;2023-09-12T09:02:50;28.10;47.40
19248;DHT22;9758;48.640;8.148;2023-09-12T09:05:20;28.20;47.40
19248;DHT22;9758;48.640;8.148;2023-09-12T09:07:49;28.30;47.20
19248;DHT22;9758;48.640;8.148;2023-09-12T09:10:19;28.40;47.10
19248;DHT22;9758;48.640;8.148;2023-09-12T09:12:46;28.50;47.10
19248;DHT22;9758;48.640;8.148;2023-09-12T09:15:23;28.50;46.90
19248;DHT22;9758;48.640;8.148;2023-09-12T09:17:52;28.60;46.70
19248;DHT22;9758;48.640;8.148;2023-09-12T09:20:24;28.70;46.60
19248;DHT22;9758;48.640;8.148;2023-09-12T09:22:57;28.80;46.80
19248;DHT22;9758;48.640;8.148;2023-09-12T09:25:26;28.80;46.70
19248;DHT22;9758;48.640;8.148;2023-09-12T09:27:53;28.80;46.80
19248;DHT22;9758;48.640;8.148;2023-09-12T09:30:39;28.90;46.90
19248;DHT22;9758;48.640;8.148;2023-09-12T09:33:07;28.90;46.90
19248;DHT22;9758;48.640;8.148;2023-09-12T09:35:34;28.90;46.90
19248;DHT22;9758;48.640;8.148;2023-09-12T09:38:02;28.90;46.70
19248;DHT22;9758;48.640;8.148;2023-09-12T09:40:32;28.90;46.70
19248;DHT22;9758;48.640;8.148;2023-09-12T09:43:00;29.00;46.70
19248;DHT22;9758;48.640;8.148;2023-09-12T09:45:27;29.00;46.70
19248;DHT22;9758;48.640;8.148;2023-09-12T09:47:57;29.00;46.70
19248;DHT22;9758;48.640;8.148;2023-09-12T09:50:25;29.10;46.70
19248;DHT22;9758;48.640;8.148;2023-09-12T09:52:56;29.10;46.60
19248;DHT22;9758;48.640;8.148;2023-09-12T09:55:23;29.20;46.70
19248;DHT22;9758;48.640;8.148;2023-09-12T09:57:52;29.20;46.70
19248;DHT22;9758;48.640;8.148;2023-09-12T10:00:21;29.20;46.60
19248;DHT22;9758;48.640;8.148;2023-09-12T10:02:50;29.30;46.60
19248;DHT22;9758;48.640;8.148;2023-09-12T10:05:18;29.30;46.50
19248;DHT22;9758;48.640;8.148;2023-09-12T10:07:47;29.30;46.50
19248;DHT22;9758;48.640;8.148;2023-09-12T10:10:16;29.40;46.50
19248;DHT22;9758;48.640;8.148;2023-09-12T10:12:49;29.40;46.50
19248;DHT22;9758;48.640;8.148;2023-09-12T10:15:19;29.50;46.40
19248;DHT22;9758;48.640;8.148;2023-09-12T10:17:52;29.60;46.40
19248;DHT22;9758;48.640;8.148;2023-09-12T10:20:21;29.70;46.30
19248;DHT22;9758;48.640;8.148;2023-09-12T10:22:59;29.80;46.10
19248;DHT22;9758;48.640;8.148;2023-09-12T10:25:28;29.80;46.00
19248;DHT22;9758;48.640;8.148;2023-09-12T10:27:56;29.90;46.00
19248;DHT22;9758;48.640;8.148;2023-09-12T10:30:24;30.00;45.90
19248;DHT22;9758;48.640;8.148;2023-09-12T10:32:52;30.00;45.90
19248;DHT22;9758;48.640;8.148;2023-09-12T10:35:19;30.10;45.80
19248;DHT22;9758;48.640;8.148;2023-09-12T10:37:49;30.20;45.70
19248;DHT22;9758;48.640;8.148;2023-09-12T10:40:17;30.20;45.60
19248;DHT22;9758;48.640;8.148;2023-09-12T10:42:44;30.30;45.60
19248;DHT22;9758;48.640;8.148;2023-09-12T10:45:13;30.40;45.20
19248;DHT22;9758;48.640;8.148;2023-09-12T10:47:41;30.40;45.20
19248;DHT22;9758;48.640;8.148;2023-09-12T10:50:09;30.50;45.10
19248;DHT22;9758;48.640;8.148;2023-09-12T10:52:36;30.50;45.20
19248;DHT22;9758;48.640;8.148;2023-09-12T10:55:06;30.50;45.20
19248;DHT22;9758;48.640;8.148;2023-09-12T10:57:33;30.60;45.20
19248;DHT22;9758;48.640;8.148;2023-09-12T11:00:13;30.60;45.10
19248;DHT22;9758;48.640;8.148;2023-09-12T11:02:46;30.70;45.00
19248;DHT22;9758;48.640;8.148;2023-09-12T11:05:36;30.80;45.00
19248;DHT22;9758;48.640;8.148;2023-09-12T11:08:03;30.80;44.90
19248;DHT22;9758;48.640;8.148;2023-09-12T11:10:30;30.90;44.90
19248;DHT22;9758;48.640;8.148;2023-09-12T11:12:58;30.80;44.60
19248;DHT22;9758;48.640;8.148;2023-09-12T11:15:26;30.90;44.40
19248;DHT22;9758;48.640;8.148;2023-09-12T11:18:02;30.90;44.70
19248;DHT22;9758;48.640;8.148;2023-09-12T11:20:53;30.90;44.50
19248;DHT22;9758;48.640;8.148;2023-09-12T11:23:25;31.00;44.50
19248;DHT22;9758;48.640;8.148;2023-09-12T11:26:03;31.10;44.40
19248;DHT22;9758;48.640;8.148;2023-09-12T11:28:31;31.10;44.50
19248;DHT22;9758;48.640;8.148;2023-09-12T11:30:58;31.10;44.30
19248;DHT22;9758;48.640;8.148;2023-09-12T11:33:27;31.20;44.40
19248;DHT22;9758;48.640;8.148;2023-09-12T11:35:54;31.20;44.40
19248;DHT22;9758;48.640;8.148;2023-09-12T11:38:27;31.30;44.30
19248;DHT22;9758;48.640;8.148;2023-09-12T11:40:54;31.30;43.90
19248;DHT22;9758;48.640;8.148;2023-09-12T11:43:23;31.40;43.60
19248;DHT22;9758;48.640;8.148;2023-09-12T11:45:50;31.30;43.80
19248;DHT22;9758;48.640;8.148;2023-09-12T11:48:18;31.40;44.00
19248;DHT22;9758;48.640;8.148;2023-09-12T11:50:52;31.40;43.90
19248;DHT22;9758;48.640;8.148;2023-09-12T11:53:20;31.50;43.90
19248;DHT22;9758;48.640;8.148;2023-09-12T11:55:53;31.50;43.70
19248;DHT22;9758;48.640;8.148;2023-09-12T11:58:21;31.60;43.80
19248;DHT22;9758;48.640;8.148;2023-09-12T12:00:50;31.60;43.40
19248;DHT22;9758;48.640;8.148;2023-09-12T12:03:19;31.60;43.50
19248;DHT22;9758;48.640;8.148;2023-09-12T12:05:47;31.70;43.20
19248;DHT22;9758;48.640;8.148;2023-09-12T12:08:17;31.70;43.30
19248;DHT22;9758;48.640;8.148;2023-09-12T12:10:49;31.70;43.20
19248;DHT22;9758;48.640;8.148;2023-09-12T12:13:17;31.80;43.10
19248;DHT22;9758;48.640;8.148;2023-09-12T12:15:44;31.80;42.90
19248;DHT22;9758;48.640;8.148;2023-09-12T12:18:11;31.90;43.00
19248;DHT22;9758;48.640;8.148;2023-09-12T12:20:37;31.90;43.00
19248;DHT22;9758;48.640;8.148;2023-09-12T12:23:04;32.00;43.00
19248;DHT22;9758;48.640;8.148;2023-09-12T12:25:33;32.10;42.70
19248;DHT22;9758;48.640;8.148;2023-09-12T12:28:01;32.10;42.80
19248;DHT22;9758;48.640;8.148;2023-09-12T12:30:30;32.10;42.60
19248;DHT22;9758;48.640;8.148;2023-09-12T12:32:57;32.10;42.70
19248;DHT22;9758;48.640;8.148;2023-09-12T12:35:24;32.20;42.70
19248;DHT22;9758;48.640;8.148;2023-09-12T12:37:54;32.30;42.40
19248;DHT22;9758;48.640;8.148;2023-09-12T12:40:22;32.30;42.50
19248;DHT22;9758;48.640;8.148;2023-09-12T12:42:51;32.30;42.00
19248;DHT22;9758;48.640;8.148;2023-09-12T12:45:19;32.30;41.80
19248;DHT22;9758;48.640;8.148;2023-09-12T12:47:50;32.30;42.10
19248;DHT22;9758;48.640;8.148;2023-09-12T12:50:17;32.30;42.20
19248;DHT22;9758;48.640;8.148;2023-09-12T12:52:47;32.30;42.50
19248;DHT22;9758;48.640;8.148;2023-09-12T12:55:15;32.30;42.60
19248;DHT22;9758;48.640;8.148;2023-09-12T12:57:43;32.30;42.60
19248;DHT22;9758;48.640;8.148;2023-09-12T13:00:14;32.40;42.70
19248;DHT22;9758;48.640;8.148;2023-09-12T13:02:42;32.40;42.50
19248;DHT22;9758;48.640;8.148;2023-09-12T13:05:20;32.50;42.50
19248;DHT22;9758;48.640;8.148;2023-09-12T13:07:47;32.50;42.30
19248;DHT22;9758;48.640;8.148;2023-09-12T13:10:14;32.60;42.30
19248;DHT22;9758;48.640;8.148;2023-09-12T13:12:41;32.70;42.20
19248;DHT22;9758;48.640;8.148;2023-09-12T13:15:12;32.80;42.00
19248;DHT22;9758;48.640;8.148;2023-09-12T13:17:40;32.90;42.20
19248;DHT22;9758;48.640;8.148;2023-09-12T13:20:08;32.90;42.30
19248;DHT22;9758;48.640;8.148;2023-09-12T13:22:38;33.00;42.30
19248;DHT22;9758;48.640;8.148;2023-09-12T13:25:09;33.10;42.30
19248;DHT22;9758;48.640;8.148;2023-09-12T13:27:36;33.20;42.20
19248;DHT22;9758;48.640;8.148;2023-09-12T13:30:07;33.20;42.00
19248;DHT22;9758;48.640;8.148;2023-09-12T13:32:51;33.30;41.80
19248;DHT22;9758;48.640;8.148;2023-09-12T13:35:41;33.30;41.60
19248;DHT22;9758;48.640;8.148;2023-09-12T13:38:10;33.40;41.60
19248;DHT22;9758;48.640;8.148;2023-09-12T13:40:37;33.40;41.60
19248;DHT22;9758;48.640;8.148;2023-09-12T13:43:04;33.50;41.50
19248;DHT22;9758;48.640;8.148;2023-09-12T13:45:31;33.50;41.40
19248;DHT22;9758;48.640;8.148;2023-09-12T13:48:03;33.60;41.50
19248;DHT22;9758;48.640;8.148;2023-09-12T13:50:30;33.60;41.40
19248;DHT22;9758;48.640;8.148;2023-09-12T13:52:58;33.60;40.90
19248;DHT22;9758;48.640;8.148;2023-09-12T13:55:26;33.70;41.10
19248;DHT22;9758;48.640;8.148;2023-09-12T13:57:53;33.60;40.80
19248;DHT22;9758;48.640;8.148;2023-09-12T14:00:19;33.60;40.30
19248;DHT22;9758;48.640;8.148;2023-09-12T14:02:46;33.60;40.80
19248;DHT22;9758;48.640;8.148;2023-09-12T14:05:15;33.60;40.50
19248;DHT22;9758;48.640;8.148;2023-09-12T14:07:42;33.60;40.70
19248;DHT22;9758;48.640;8.148;2023-09-12T14:10:10;33.60;40.70
19248;DHT22;9758;48.640;8.148;2023-09-12T14:12:36;33.70;40.70
19248;DHT22;9758;48.640;8.148;2023-09-12T14:15:04;33.70;40.60
19248;DHT22;9758;48.640;8.148;2023-09-12T14:17:32;33.80;40.80
19248;DHT22;9758;48.640;8.148;2023-09-12T14:19:59;33.80;39.90
19248;DHT22;9758;48.640;8.148;2023-09-12T14:22:27;33.80;40.20
19248;DHT22;9758;48.640;8.148;2023-09-12T14:24:55;33.70;40.10
19248;DHT22;9758;48.640;8.148;2023-09-12T14:27:22;33.80;40.30
19248;DHT22;9758;48.640;8.148;2023-09-12T14:29:49;33.80;40.00
19248;DHT22;9758;48.640;8.148;2023-09-12T14:32:16;33.80;40.20
19248;DHT22;9758;48.640;8.148;2023-09-12T14:34:43;33.90;40.10
19248;DHT22;9758;48.640;8.148;2023-09-12T14:37:12;33.90;40.00
19248;DHT22;9758;48.640;8.148;2023-09-12T14:39:42;33.90;39.90
19248;DHT22;9758;48.640;8.148;2023-09-12T14:42:10;33.90;39.70
19248;DHT22;9758;48.640;8.148;2023-09-12T14:44:38;33.90;39.80
19248;DHT22;9758;48.640;8.148;2023-09-12T14:47:05;34.00;39.70
19248;DHT22;9758;48.640;8.148;2023-09-12T14:49:32;34.00;39.70
19248;DHT22;9758;48.640;8.148;2023-09-12T14:51:59;34.00;39.70
19248;DHT22;9758;48.640;8.148;2023-09-12T14:54:27;34.00;39.80
19248;DHT22;9758;48.640;8.148;2023-09-12T14:56:56;34.10;39.70
19248;DHT22;9758;48.640;8.148;2023-09-12T14:59:23;34.10;39.70
19248;DHT22;9758;48.640;8.148;2023-09-12T15:01:51;34.10;39.40
19248;DHT22;9758;48.640;8.148;2023-09-12T15:04:18;34.10;39.20
19248;DHT22;9758;48.640;8.148;2023-09-12T15:06:46;34.10;39.60
19248;DHT22;9758;48.640;8.148;2023-09-12T15:09:14;34.10;39.70
19248;DHT22;9758;48.640;8.148;2023-09-12T15:11:41;34.10;39.80
19248;DHT22;9758;48.640;8.148;2023-09-12T15:14:17;34.20;39.90
19248;DHT22;9758;48.640;8.148;2023-09-12T15:16:44;34.20;39.80
19248;DHT22;9758;48.640;8.148;2023-09-12T15:19:11;34.10;39.70
19248;DHT22;9758;48.640;8.148;2023-09-12T15:21:38;34.00;39.70
19248;DHT22;9758;48.640;8.148;2023-09-12T15:24:06;34.00;39.80
19248;DHT22;9758;48.640;8.148;2023-09-12T15:26:34;33.90;39.80
19248;DHT22;9758;48.640;8.148;2023-09-12T15:29:01;33.90;40.00
19248;DHT22;9758;48.640;8.148;2023-09-12T15:31:29;33.80;40.00
19248;DHT22;9758;48.640;8.148;2023-09-12T15:33:57;33.80;40.00
19248;DHT22;9758;48.640;8.148;2023-09-12T15:36:24;33.80;40.00
19248;DHT22;9758;48.640;8.148;2023-09-12T15:38:51;33.90;40.00
19248;DHT22;9758;48.640;8.148;2023-09-12T15:41:18;33.90;40.00
19248;DHT22;9758;48.640;8.148;2023-09-12T15:43:45;34.00;40.00
19248;DHT22;9758;48.640;8.148;2023-09-12T15:46:12;34.10;40.10
19248;DHT22;9758;48.640;8.148;2023-09-12T15:48:41;34.40;40.30
19248;DHT22;9758;48.640;8.148;2023-09-12T15:51:08;34.70;40.50
19248;DHT22;9758;48.640;8.148;2023-09-12T15:53:34;35.20;40.70
19248;DHT22;9758;48.640;8.148;2023-09-12T15:56:02;35.70;40.70
19248;DHT22;9758;48.640;8.148;2023-09-12T15:58:29;36.40;41.30